Time;durP1;ratioP1;P1;durP2;ratioP2;P2;SDS_P1;SDS_P2;PMS_P1;PMS_P2;Temp;Humidity;BMP_temperature;BMP_pressure;BME280_temperature;BME280_humidity;BME280_pressure;Samples;Min_cycle;Max_cycle;Signal;HPM_P1;HPM_P2
2021/09/11 04:31:56;;;;;;;7.57;6.93;;;18.00;99.90;;;;;;5546525;23;20503;-78
2021/09/11 04:34:22;;;;;;;9.20;8.40;;;18.00;99.90;;;;;;5024411;28;20548;-78
2021/09/11 04:36:47;;;;;;;9.40;8.03;;;18.00;99.90;;;;;;5025355;28;20193;-79
2021/09/11 04:39:13;;;;;;;9.83;7.27;;;18.00;99.90;;;;;;5032787;28;20190;-80
2021/09/11 04:41:38;;;;;;;9.00;8.20;;;18.10;99.90;;;;;;5018680;28;20196;-79
2021/09/11 04:44:04;;;;;;;8.80;7.90;;;18.00;99.90;;;;;;5052994;28;20220;-78
2021/09/11 04:46:30;;;;;;;8.00;7.20;;;18.00;99.90;;;;;;5052489;28;20538;-78
2021/09/11 04:48:56;;;;;;;8.30;7.50;;;18.10;99.90;;;;;;5052563;28;20184;-77
2021/09/11 04:51:21;;;;;;;7.80;7.00;;;18.00;99.90;;;;;;5052422;28;20428;-78
2021/09/11 04:53:48;;;;;;;9.23;7.43;;;18.00;99.90;;;;;;5050099;28;20597;-78
2021/09/11 04:56:13;;;;;;;8.90;8.00;;;18.00;99.90;;;;;;5032678;28;20182;-81
2021/09/11 04:58:39;;;;;;;8.63;7.83;;;18.00;99.90;;;;;;5032553;28;20492;-78
2021/09/11 05:01:05;;;;;;;9.00;7.90;;;18.00;99.90;;;;;;5031859;28;20560;-78
2021/09/11 05:03:30;;;;;;;7.43;6.73;;;18.10;99.90;;;;;;5014580;28;20201;-78
2021/09/11 05:05:56;;;;;;;7.70;6.90;;;18.10;99.90;;;;;;5032607;28;20170;-78
2021/09/11 05:08:22;;;;;;;8.17;7.47;;;18.00;99.90;;;;;;5032079;28;20174;-80
2021/09/11 05:10:48;;;;;;;7.97;7.33;;;18.00;99.90;;;;;;5032891;28;20277;-79
2021/09/11 05:13:14;;;;;;;12.10;8.03;;;18.00;99.90;;;;;;5032520;28;20492;-78
2021/09/11 05:15:39;;;;;;;8.07;7.37;;;18.00;99.90;;;;;;5032554;28;20191;-78
2021/09/11 05:18:05;;;;;;;7.57;6.97;;;18.00;99.90;;;;;;5014140;28;20786;-79
2021/09/11 05:20:30;;;;;;;10.40;8.00;;;17.90;99.90;;;;;;5013503;28;20190;-78
2021/09/11 05:22:56;;;;;;;10.13;9.20;;;18.00;99.90;;;;;;5032611;28;20249;-79
2021/09/11 05:25:21;;;;;;;8.60;7.73;;;18.00;99.90;;;;;;5032502;28;20264;-79
2021/09/11 05:27:47;;;;;;;8.33;7.63;;;18.00;99.90;;;;;;5032219;28;20249;-78
2021/09/11 05:30:13;;;;;;;8.10;7.40;;;18.00;99.90;;;;;;5033993;28;20177;-79
2021/09/11 05:32:39;;;;;;;10.37;7.23;;;18.00;99.90;;;;;;5051687;28;20567;-79
2021/09/11 05:35:05;;;;;;;8.30;7.60;;;18.00;99.90;;;;;;5051391;28;20422;-79
2021/09/11 05:37:31;;;;;;;8.10;7.30;;;18.00;99.90;;;;;;5051856;28;20256;-78
2021/09/11 05:39:56;;;;;;;8.17;7.37;;;18.00;99.90;;;;;;5051139;28;20499;-79
2021/09/11 05:42:22;;;;;;;7.80;6.73;;;18.00;99.90;;;;;;5051685;28;20702;-79
2021/09/11 05:44:47;;;;;;;7.00;6.40;;;18.00;99.90;;;;;;5052055;28;20288;-79
2021/09/11 05:47:13;;;;;;;8.60;7.03;;;18.00;99.90;;;;;;5051207;28;20698;-79
2021/09/11 05:49:38;;;;;;;7.87;7.07;;;18.10;99.90;;;;;;5051127;28;20173;-78
2021/09/11 05:52:04;;;;;;;10.33;7.23;;;18.00;99.90;;;;;;5051395;28;20201;-78
2021/09/11 05:54:30;;;;;;;8.20;7.43;;;18.00;99.90;;;;;;5052038;28;20188;-78
2021/09/11 05:56:55;;;;;;;9.97;7.90;;;18.00;99.90;;;;;;5051286;28;20435;-78
2021/09/11 05:59:21;;;;;;;9.30;8.40;;;18.10;99.90;;;;;;5052437;28;20290;-80
2021/09/11 06:01:46;;;;;;;7.50;6.80;;;18.10;99.90;;;;;;5052373;28;20677;-80
2021/09/11 06:04:12;;;;;;;8.87;7.60;;;18.10;99.90;;;;;;5052250;28;20201;-79
2021/09/11 06:06:37;;;;;;;7.87;7.17;;;18.10;99.90;;;;;;5052059;28;20177;-79
2021/09/11 06:09:03;;;;;;;7.13;6.43;;;18.20;99.90;;;;;;5052218;28;20658;-80
2021/09/11 06:11:29;;;;;;;7.00;6.33;;;18.20;99.90;;;;;;5052494;28;20240;-79
2021/09/11 06:13:55;;;;;;;6.10;5.60;;;18.30;99.90;;;;;;5052216;28;20412;-78
2021/09/11 06:16:20;;;;;;;6.43;5.50;;;18.30;99.90;;;;;;5051959;28;20310;-79
2021/09/11 06:18:46;;;;;;;7.67;5.97;;;18.30;99.90;;;;;;5051451;28;20267;-79
2021/09/11 06:21:12;;;;;;;6.77;6.00;;;18.40;99.90;;;;;;5051951;28;20193;-79
2021/09/11 06:23:37;;;;;;;5.60;5.10;;;18.40;99.90;;;;;;5051609;28;20462;-80
2021/09/11 06:26:04;;;;;;;5.73;5.23;;;18.40;99.90;;;;;;5051777;28;20165;-80
2021/09/11 06:28:29;;;;;;;5.77;5.27;;;18.50;99.90;;;;;;5051857;28;20650;-79
2021/09/11 06:30:55;;;;;;;5.60;5.10;;;18.50;99.90;;;;;;5043756;28;20436;-77
2021/09/11 06:33:20;;;;;;;5.60;5.10;;;18.60;99.90;;;;;;5032634;28;20193;-79
2021/09/11 06:35:46;;;;;;;5.80;5.30;;;18.60;99.90;;;;;;5032138;28;20181;-78
2021/09/11 06:38:11;;;;;;;6.03;4.80;;;18.70;99.90;;;;;;5032310;28;20205;-80
2021/09/11 06:40:37;;;;;;;5.13;4.50;;;18.70;99.90;;;;;;5031164;28;20182;-80
2021/09/11 06:43:02;;;;;;;5.20;4.80;;;18.70;99.90;;;;;;5032278;28;20206;-79
2021/09/11 06:45:28;;;;;;;5.17;4.77;;;18.90;99.90;;;;;;5032103;28;20170;-80
2021/09/11 06:47:54;;;;;;;5.80;5.20;;;18.90;99.90;;;;;;5031927;28;20239;-78
2021/09/11 06:50:19;;;;;;;5.60;5.10;;;19.00;99.90;;;;;;5030911;28;20170;-80
2021/09/11 06:52:45;;;;;;;6.20;5.20;;;19.10;99.90;;;;;;5013909;28;20204;-75
2021/09/11 06:55:11;;;;;;;5.13;4.83;;;19.10;99.90;;;;;;5030231;28;20288;-74
2021/09/11 06:57:36;;;;;;;5.23;4.80;;;19.30;99.90;;;;;;5030522;28;20162;-73
2021/09/11 07:00:06;;;;;;;5.83;5.00;;;19.30;99.90;;;;;;5029747;28;20177;-74
2021/09/11 07:02:32;;;;;;;4.30;4.00;;;19.50;99.90;;;;;;5030012;28;20197;-74
2021/09/11 07:04:57;;;;;;;4.53;4.20;;;19.50;99.90;;;;;;5030319;28;20518;-73
2021/09/11 07:07:23;;;;;;;4.30;4.00;;;19.60;99.90;;;;;;5030195;28;20603;-74
2021/09/11 07:09:48;;;;;;;4.27;3.90;;;19.70;99.90;;;;;;5029716;28;20545;-74
2021/09/11 07:12:16;;;;;;;4.20;3.90;;;19.80;99.90;;;;;;5029573;28;20667;-72
2021/09/11 07:14:41;;;;;;;4.77;4.47;;;19.90;99.90;;;;;;5030576;28;20205;-74
2021/09/11 07:17:07;;;;;;;5.00;3.87;;;19.90;99.90;;;;;;5030325;28;20459;-74
2021/09/11 07:19:32;;;;;;;8.10;4.50;;;20.00;99.90;;;;;;5029786;28;20185;-74
2021/09/11 07:21:58;;;;;;;4.17;3.87;;;20.10;99.90;;;;;;5030195;28;20221;-74
2021/09/11 07:24:23;;;;;;;5.10;3.73;;;20.20;99.90;;;;;;5030041;28;20573;-74
2021/09/11 07:26:49;;;;;;;4.00;3.70;;;20.20;99.90;;;;;;5029788;28;20174;-74
2021/09/11 07:29:15;;;;;;;4.13;3.37;;;20.30;99.90;;;;;;5029282;28;20524;-72
2021/09/11 07:31:40;;;;;;;3.03;2.83;;;20.50;99.90;;;;;;5044074;28;20215;-74
2021/09/11 07:34:06;;;;;;;3.50;3.20;;;20.60;99.90;;;;;;5050140;28;20213;-73
2021/09/11 07:36:32;;;;;;;3.90;3.60;;;20.80;99.90;;;;;;5049603;28;20550;-74
2021/09/11 07:38:57;;;;;;;3.23;3.00;;;21.00;99.90;;;;;;5048963;28;20248;-74
2021/09/11 07:41:23;;;;;;;8.93;4.50;;;21.30;99.90;;;;;;5049827;28;20236;-74
2021/09/11 07:43:48;;;;;;;2.80;2.60;;;21.40;99.90;;;;;;5054046;28;20544;-75
2021/09/11 07:46:14;;;;;;;3.03;2.73;;;21.40;99.90;;;;;;5053257;28;20203;-73
2021/09/11 07:48:39;;;;;;;3.00;2.80;;;21.40;99.90;;;;;;5053292;28;20169;-73
2021/09/11 07:51:05;;;;;;;4.20;2.97;;;21.50;99.90;;;;;;5054030;28;20199;-75
2021/09/11 07:53:30;;;;;;;3.17;2.87;;;21.40;99.90;;;;;;5054033;28;20185;-74
2021/09/11 07:55:56;;;;;;;2.93;2.67;;;21.50;99.90;;;;;;5054209;28;20173;-78
2021/09/11 07:58:21;;;;;;;3.67;2.53;;;21.30;99.90;;;;;;5054197;28;20181;-78
2021/09/11 08:00:47;;;;;;;2.20;2.10;;;21.30;99.90;;;;;;5053463;28;20205;-78
2021/09/11 08:03:12;;;;;;;3.97;2.93;;;21.20;99.90;;;;;;5053803;28;20197;-78
2021/09/11 08:05:39;;;;;;;2.70;2.50;;;21.20;99.90;;;;;;5053931;28;20267;-78
2021/09/11 08:08:04;;;;;;;3.10;2.90;;;21.30;99.90;;;;;;5054125;28;20173;-79
2021/09/11 08:10:30;;;;;;;2.50;2.40;;;21.40;99.90;;;;;;5053007;28;20779;-78
2021/09/11 08:12:55;;;;;;;2.70;2.20;;;21.70;99.90;;;;;;5053890;28;20219;-78
2021/09/11 08:15:21;;;;;;;4.70;2.57;;;22.00;99.90;;;;;;5054045;28;20173;-78
2021/09/11 08:17:47;;;;;;;3.30;2.30;;;22.40;99.90;;;;;;5053846;28;20170;-78
2021/09/11 08:20:13;;;;;;;8.93;3.10;;;22.60;99.90;;;;;;5053155;28;20429;-78
2021/09/11 08:22:40;;;;;;;3.07;2.77;;;22.50;99.90;;;;;;5030989;28;20263;-79
2021/09/11 08:25:06;;;;;;;2.90;2.70;;;22.80;99.90;;;;;;5033586;28;20479;-78
2021/09/11 08:27:32;;;;;;;2.57;2.20;;;23.00;99.90;;;;;;5033227;28;20853;-78
2021/09/11 08:29:57;;;;;;;2.33;2.10;;;23.40;99.90;;;;;;5032945;28;20511;-79
2021/09/11 08:32:23;;;;;;;2.50;2.20;;;23.40;99.90;;;;;;5052730;28;20216;-78
2021/09/11 08:34:50;;;;;;;2.23;2.13;;;23.30;99.90;;;;;;5040354;28;20198;-77
2021/09/11 08:37:16;;;;;;;2.93;2.23;;;23.40;99.90;;;;;;5031602;28;20678;-78
2021/09/11 08:39:41;;;;;;;2.87;1.77;;;23.10;99.90;;;;;;5032707;28;20558;-78
2021/09/11 08:42:09;;;;;;;2.43;2.23;;;23.00;99.90;;;;;;5033031;28;20523;-78
2021/09/11 08:44:34;;;;;;;2.77;2.57;;;22.70;99.90;;;;;;5028272;28;20205;-76
2021/09/11 08:47:00;;;;;;;2.70;2.47;;;22.50;99.90;;;;;;5033559;28;20432;-79
2021/09/11 08:49:25;;;;;;;2.80;2.60;;;22.20;99.90;;;;;;5016350;28;20189;-79
2021/09/11 08:51:52;;;;;;;6.83;2.10;;;22.10;99.90;;;;;;5034218;28;20563;-79
2021/09/11 08:54:21;;;;;;;2.20;2.07;;;22.10;99.90;;;;;;5033700;28;20264;-79
2021/09/11 08:56:49;;;;;;;4.97;1.83;;;22.10;99.90;;;;;;5031663;28;20444;-78
2021/09/11 08:59:18;;;;;;;3.40;2.37;;;22.10;99.90;;;;;;5032423;28;20447;-77
2021/09/11 09:01:59;;;;;;;1.80;1.70;;;22.10;99.90;;;;;;5032817;28;21021;-77
2021/09/11 09:04:45;;;;;;;4.00;2.13;;;22.10;99.90;;;;;;5033062;28;20547;-77
2021/09/11 09:07:11;;;;;;;2.30;1.97;;;22.30;99.90;;;;;;5032844;28;20484;-77
2021/09/11 09:09:41;;;;;;;2.67;2.40;;;22.40;99.90;;;;;;5032154;28;20417;-77
2021/09/11 09:12:14;;;;;;;2.03;1.70;;;22.40;99.90;;;;;;5032765;28;20519;-78
2021/09/11 09:14:56;;;;;;;2.80;2.60;;;22.40;99.90;;;;;;5032175;28;20787;-77
2021/09/11 09:17:35;;;;;;;2.40;1.87;;;22.30;99.90;;;;;;5032821;28;20500;-78
2021/09/11 09:20:12;;;;;;;2.43;2.23;;;22.50;99.90;;;;;;5014654;28;20494;-77
2021/09/11 09:22:37;;;;;;;2.20;2.00;;;22.50;99.90;;;;;;5031998;28;20582;-77
2021/09/11 09:25:03;;;;;;;2.23;2.07;;;22.50;99.90;;;;;;5032769;28;20543;-78
2021/09/11 09:27:30;;;;;;;1.80;1.70;;;22.50;99.90;;;;;;5032863;28;20713;-77
2021/09/11 09:30:00;;;;;;;2.23;2.10;;;22.80;99.90;;;;;;5032147;28;20412;-77
2021/09/11 09:32:38;;;;;;;1.90;1.80;;;23.00;99.90;;;;;;5012388;28;20237;-78
2021/09/11 09:35:24;;;;;;;1.83;1.73;;;23.30;99.90;;;;;;5012641;28;20440;-78
2021/09/11 09:37:58;;;;;;;2.90;2.07;;;23.40;99.90;;;;;;4995431;28;20499;-78
2021/09/11 09:40:36;;;;;;;2.90;1.80;;;23.30;99.90;;;;;;5012568;28;20444;-78
2021/09/11 09:43:02;;;;;;;2.23;2.00;;;23.30;99.90;;;;;;5011685;28;20417;-77
2021/09/11 09:45:30;;;;;;;2.60;1.67;;;23.50;99.90;;;;;;5012320;28;20428;-77
2021/09/11 09:48:10;;;;;;;2.17;1.97;;;23.80;99.90;;;;;;5012014;28;20445;-77
2021/09/11 09:50:38;;;;;;;1.80;1.70;;;24.10;99.90;;;;;;5011448;28;20420;-77
2021/09/11 09:53:05;;;;;;;5.03;2.17;;;24.20;99.90;;;;;;5011934;28;20776;-77
2021/09/11 09:55:31;;;;;;;1.93;1.83;;;24.30;99.90;;;;;;5011092;28;20915;-77
2021/09/11 09:57:57;;;;;;;2.63;2.30;;;24.40;99.90;;;;;;5011674;28;20422;-77
2021/09/11 10:00:24;;;;;;;2.50;1.60;;;24.70;99.90;;;;;;5011135;28;20206;-78
2021/09/11 10:02:50;;;;;;;2.07;1.90;;;25.50;99.90;;;;;;5011696;28;20194;-76
2021/09/11 10:05:19;;;;;;;2.30;1.77;;;26.00;99.90;;;;;;5010221;28;20523;-75
2021/09/11 10:07:57;;;;;;;1.63;1.53;;;26.60;99.90;;;;;;5011533;28;20236;-78
2021/09/11 10:10:28;;;;;;;2.47;2.10;;;27.50;99.90;;;;;;5010914;28;20425;-77
2021/09/11 10:13:04;;;;;;;2.30;2.10;;;27.80;99.90;;;;;;5011579;28;20444;-78
2021/09/11 10:15:35;;;;;;;2.20;2.00;;;27.40;99.90;;;;;;5011025;28;20498;-78
2021/09/11 10:18:02;;;;;;;2.70;1.70;;;27.00;99.90;;;;;;5011285;28;20932;-77
2021/09/11 10:20:28;;;;;;;1.90;1.80;;;26.50;99.90;;;;;;5010624;28;20414;-77
2021/09/11 10:23:13;;;;;;;3.60;1.83;;;26.00;99.90;;;;;;5011203;28;20424;-77
2021/09/11 10:25:47;;;;;;;2.53;2.33;;;25.40;99.90;;;;;;5011658;28;20282;-78
2021/09/11 10:28:18;;;;;;;2.20;2.03;;;25.10;99.90;;;;;;4993174;28;20483;-78
2021/09/11 10:31:03;;;;;;;2.70;2.00;;;24.90;99.90;;;;;;5005798;28;20866;-80
2021/09/11 10:33:42;;;;;;;3.37;1.80;;;25.10;99.90;;;;;;5032889;28;20432;-77
2021/09/11 10:36:22;;;;;;;2.27;1.90;;;25.80;99.90;;;;;;5050996;28;20494;-77
2021/09/11 10:38:51;;;;;;;3.43;1.97;;;26.70;99.90;;;;;;5050267;28;20422;-79
2021/09/11 10:41:17;;;;;;;1.73;1.63;;;27.60;99.90;;;;;;5050002;28;20440;-77
2021/09/11 10:44:06;;;;;;;2.57;2.37;;;28.30;99.90;;;;;;5050558;28;20589;-77
2021/09/11 10:46:53;;;;;;;1.70;1.60;;;28.70;99.90;;;;;;5050545;28;20176;-77
2021/09/11 10:49:24;;;;;;;2.20;2.00;;;28.90;99.90;;;;;;5049221;28;20478;-78
2021/09/11 10:52:19;;;;;;;2.17;2.03;;;28.90;99.90;;;;;;5031713;28;20980;-78
2021/09/11 10:54:45;;;;;;;2.53;2.00;;;28.20;99.90;;;;;;5029136;28;20443;-78
2021/09/11 10:57:18;;;;;;;2.03;1.93;;;27.40;99.90;;;;;;5050621;28;20419;-78
2021/09/11 10:59:50;;;;;;;5.23;1.80;;;26.60;99.90;;;;;;5050060;28;20173;-78
2021/09/11 11:02:30;;;;;;;2.70;2.07;;;26.10;99.90;;;;;;5049788;28;20443;-77
2021/09/11 11:05:02;;;;;;;2.40;2.23;;;25.60;99.90;;;;;;5032571;28;20463;-78
2021/09/11 11:07:30;;;;;;;2.87;2.60;;;25.20;99.90;;;;;;5032476;28;20427;-77
2021/09/11 11:09:59;;;;;;;2.70;2.60;;;25.00;99.90;;;;;;5049519;28;20416;-77
2021/09/11 11:12:27;;;;;;;2.67;2.50;;;24.70;99.90;;;;;;5050017;28;20439;-78
2021/09/11 11:15:09;;;;;;;2.67;2.50;;;24.50;99.90;;;;;;5049811;28;20420;-77
2021/09/11 11:17:37;;;;;;;4.37;3.30;;;24.20;99.90;;;;;;5053992;28;20463;-78
2021/09/11 11:20:04;;;;;;;5.30;3.73;;;23.50;99.90;;;;;;5054137;28;20426;-77
2021/09/11 11:22:34;;;;;;;3.67;3.37;;;23.10;99.90;;;;;;5053551;28;20432;-78
2021/09/11 11:25:01;;;;;;;6.13;4.00;;;22.80;99.90;;;;;;5054236;28;20461;-78
2021/09/11 11:27:28;;;;;;;4.80;4.40;;;22.40;99.90;;;;;;5054432;28;20407;-77
2021/09/11 11:29:56;;;;;;;4.90;4.40;;;21.80;99.90;;;;;;5054012;28;20921;-75
2021/09/11 11:32:28;;;;;;;4.57;4.17;;;21.50;99.90;;;;;;5014681;28;20481;-78
2021/09/11 11:34:59;;;;;;;5.10;4.63;;;21.30;99.90;;;;;;5015188;28;20410;-79
2021/09/11 11:37:30;;;;;;;6.80;5.30;;;21.00;99.90;;;;;;5014256;28;20428;-78
2021/09/11 11:40:00;;;;;;;4.50;4.07;;;21.00;99.90;;;;;;5013279;28;20413;-75
2021/09/11 11:42:27;;;;;;;4.53;4.13;;;21.00;99.90;;;;;;5014036;28;20939;-78
2021/09/11 11:44:54;;;;;;;7.20;4.57;;;20.90;99.90;;;;;;5014147;28;20463;-78
2021/09/11 11:48:01;;;;;;;5.43;4.73;;;21.10;99.90;;;;;;4996379;28;20964;-77
2021/09/11 11:50:46;;;;;;;5.27;4.47;;;21.30;99.90;;;;;;4952810;28;20428;-76
2021/09/11 11:53:14;;;;;;;4.03;3.73;;;21.70;99.90;;;;;;4953701;28;20412;-78
2021/09/11 11:55:43;;;;;;;3.67;3.40;;;21.90;99.90;;;;;;4991519;28;20422;-79
2021/09/11 11:58:10;;;;;;;4.03;3.30;;;22.10;99.90;;;;;;5015197;28;20475;-79
2021/09/11 12:00:58;;;;;;;5.70;2.93;;;22.30;99.90;;;;;;5013464;28;20448;-77
2021/09/11 12:03:42;;;;;;;3.63;3.37;;;22.40;99.90;;;;;;5013712;28;20460;-77
2021/09/11 12:06:15;;;;;;;3.90;3.47;;;22.50;99.90;;;;;;4996404;28;20491;-77
2021/09/11 12:08:40;;;;;;;3.97;3.67;;;22.60;99.90;;;;;;5013574;28;20410;-78
2021/09/11 12:11:18;;;;;;;4.90;3.73;;;22.60;99.90;;;;;;5013766;28;20433;-78
2021/09/11 12:13:46;;;;;;;5.70;3.57;;;22.80;99.90;;;;;;5014067;28;20800;-76
2021/09/11 12:16:11;;;;;;;6.70;5.27;;;22.90;99.90;;;;;;5014068;28;20945;-77
2021/09/11 12:18:37;;;;;;;4.63;3.90;;;22.90;99.90;;;;;;5013524;28;20460;-77
2021/09/11 12:21:14;;;;;;;6.37;4.30;;;22.90;99.90;;;;;;5013250;28;20661;-78
2021/09/11 12:23:46;;;;;;;3.50;3.20;;;22.90;99.90;;;;;;5013831;28;20204;-78
2021/09/11 12:26:14;;;;;;;3.27;3.07;;;22.90;99.90;;;;;;4996424;28;20513;-79
2021/09/11 12:29:13;;;;;;;5.13;3.20;;;22.90;99.90;;;;;;5013213;28;20496;-78
2021/09/11 12:31:40;;;;;;;3.67;3.20;;;23.10;99.90;;;;;;5023750;28;20551;-78
2021/09/11 12:34:18;;;;;;;6.20;3.70;;;23.20;99.90;;;;;;5053419;28;20408;-78
2021/09/11 12:37:04;;;;;;;3.33;3.10;;;23.30;99.90;;;;;;5052939;28;20788;-78
2021/09/11 12:39:31;;;;;;;3.10;2.87;;;23.20;99.90;;;;;;5051995;28;20981;-78
2021/09/11 12:41:59;;;;;;;3.90;3.27;;;23.10;99.90;;;;;;5052765;28;20434;-78
2021/09/11 12:44:30;;;;;;;2.60;2.40;;;22.90;99.90;;;;;;5052854;28;20463;-78
2021/09/11 12:46:58;;;;;;;2.87;2.77;;;22.90;99.90;;;;;;5053385;28;20419;-76
2021/09/11 12:49:27;;;;;;;4.40;3.20;;;22.80;99.90;;;;;;5033615;28;20420;-78
2021/09/11 12:51:55;;;;;;;4.60;3.20;;;22.90;99.90;;;;;;5035109;28;20960;-77
2021/09/11 12:54:22;;;;;;;3.47;3.07;;;23.00;99.90;;;;;;5052415;28;20412;-77
2021/09/11 12:56:48;;;;;;;3.70;3.10;;;22.90;99.90;;;;;;5052672;28;20477;-78
2021/09/11 12:59:14;;;;;;;3.20;3.00;;;22.80;99.90;;;;;;5051712;28;20447;-77
2021/09/11 13:01:41;;;;;;;3.10;2.90;;;22.90;99.90;;;;;;5052219;28;20474;-77
2021/09/11 13:04:09;;;;;;;4.20;3.03;;;23.00;99.90;;;;;;5051875;28;20491;-78
2021/09/11 13:06:35;;;;;;;3.67;3.03;;;23.00;99.90;;;;;;5052508;28;20408;-75
2021/09/11 13:09:03;;;;;;;2.70;2.17;;;23.10;99.90;;;;;;5034905;28;20999;-76
2021/09/11 13:11:28;;;;;;;2.80;2.63;;;23.10;99.90;;;;;;5051616;28;20810;-78
2021/09/11 13:13:54;;;;;;;3.33;3.10;;;23.20;99.90;;;;;;5052337;28;20454;-75
2021/09/11 13:16:20;;;;;;;3.30;3.00;;;23.10;99.90;;;;;;5051658;28;20191;-78
2021/09/11 13:18:46;;;;;;;3.47;3.17;;;23.30;99.90;;;;;;5052409;28;20495;-78
2021/09/11 13:21:13;;;;;;;2.50;2.37;;;23.40;99.90;;;;;;5051591;28;20190;-78
2021/09/11 13:23:44;;;;;;;3.27;2.97;;;23.70;99.90;;;;;;5051923;28;20467;-77
2021/09/11 13:26:11;;;;;;;2.43;2.30;;;23.90;99.90;;;;;;5034095;28;20415;-77
2021/09/11 13:28:40;;;;;;;2.87;2.53;;;23.90;99.90;;;;;;5051240;28;20772;-78
2021/09/11 13:31:07;;;;;;;2.63;2.43;;;23.70;99.90;;;;;;5041490;28;20787;-78
2021/09/11 13:33:33;;;;;;;3.10;2.90;;;23.70;99.90;;;;;;5032068;28;20779;-77
2021/09/11 13:35:59;;;;;;;4.20;3.20;;;23.90;99.90;;;;;;5031915;28;20419;-77
2021/09/11 13:38:26;;;;;;;3.43;3.23;;;24.10;99.90;;;;;;5031285;28;20408;-77
2021/09/11 13:40:52;;;;;;;2.90;2.57;;;24.00;99.90;;;;;;5030057;28;20425;-79
2021/09/11 13:43:17;;;;;;;4.13;2.60;;;23.90;99.90;;;;;;5031562;28;20420;-77
2021/09/11 13:45:43;;;;;;;3.03;2.70;;;23.80;99.90;;;;;;5031709;28;20210;-77
2021/09/11 13:48:08;;;;;;;2.20;2.10;;;23.80;99.90;;;;;;5031793;28;20182;-77
2021/09/11 13:50:34;;;;;;;1.97;1.70;;;23.70;99.90;;;;;;5030931;28;20178;-76
2021/09/11 13:53:00;;;;;;;2.63;2.53;;;23.50;99.90;;;;;;5031272;28;20181;-77
2021/09/11 13:55:26;;;;;;;2.57;2.37;;;23.50;99.90;;;;;;5031641;28;20174;-77
2021/09/11 13:57:52;;;;;;;2.03;1.93;;;23.30;99.90;;;;;;5031530;28;20258;-78
2021/09/11 14:00:17;;;;;;;4.20;1.93;;;23.40;99.90;;;;;;5030757;28;20500;-77
2021/09/11 14:02:43;;;;;;;3.50;2.10;;;23.30;99.90;;;;;;5031279;28;20194;-77
2021/09/11 14:05:09;;;;;;;3.10;2.40;;;23.20;99.90;;;;;;5031241;28;20232;-77
2021/09/11 14:07:35;;;;;;;2.63;2.40;;;23.10;99.90;;;;;;5031247;28;20439;-75
2021/09/11 14:10:00;;;;;;;3.17;2.40;;;23.00;99.90;;;;;;5013162;28;20182;-76
2021/09/11 14:12:26;;;;;;;2.13;1.93;;;22.90;99.90;;;;;;5030861;28;20233;-77
2021/09/11 14:14:51;;;;;;;2.00;1.90;;;22.80;99.90;;;;;;5031407;28;20181;-77
2021/09/11 14:17:17;;;;;;;2.10;2.00;;;22.80;99.90;;;;;;5012598;28;20615;-77
2021/09/11 14:19:42;;;;;;;2.20;2.10;;;22.70;99.90;;;;;;5030701;28;20186;-77
2021/09/11 14:22:08;;;;;;;1.83;1.70;;;22.70;99.90;;;;;;5031291;28;20201;-77
2021/09/11 14:24:33;;;;;;;2.80;2.50;;;22.60;99.90;;;;;;5013043;28;20315;-77
2021/09/11 14:27:00;;;;;;;3.73;2.97;;;22.60;99.90;;;;;;5031207;28;20227;-77
2021/09/11 14:29:25;;;;;;;3.10;2.90;;;22.50;99.90;;;;;;5030620;28;20185;-77
2021/09/11 14:31:51;;;;;;;2.87;2.67;;;22.40;99.90;;;;;;5046779;28;20455;-77
2021/09/11 14:34:16;;;;;;;2.73;2.50;;;22.40;99.90;;;;;;5050571;28;20266;-76
2021/09/11 14:36:42;;;;;;;2.67;2.50;;;22.20;99.90;;;;;;5051551;28;20192;-77
2021/09/11 14:39:08;;;;;;;2.87;2.77;;;22.20;99.90;;;;;;5050832;28;20177;-77
2021/09/11 14:41:35;;;;;;;3.57;3.37;;;22.10;99.90;;;;;;5050019;28;20501;-76
2021/09/11 14:44:02;;;;;;;2.90;2.37;;;22.00;99.90;;;;;;5050309;28;20212;-77
2021/09/11 14:46:28;;;;;;;3.47;3.20;;;22.00;99.90;;;;;;5050648;28;20776;-77
2021/09/11 14:48:53;;;;;;;4.27;2.73;;;21.90;99.90;;;;;;5051297;28;20426;-77
2021/09/11 14:51:19;;;;;;;4.00;3.13;;;21.80;99.90;;;;;;5031880;28;20258;-78
2021/09/11 14:53:44;;;;;;;3.33;3.03;;;21.80;99.90;;;;;;5050742;28;20177;-76
2021/09/11 14:56:10;;;;;;;7.73;3.07;;;21.80;99.90;;;;;;5051119;28;20177;-77
2021/09/11 14:58:35;;;;;;;3.33;2.87;;;21.80;99.90;;;;;;5050603;28;20185;-75
2021/09/11 15:01:01;;;;;;;3.13;2.93;;;21.80;99.90;;;;;;5050214;28;20256;-77
2021/09/11 15:03:27;;;;;;;7.73;3.03;;;21.80;99.90;;;;;;5050128;28;20242;-77
2021/09/11 15:05:52;;;;;;;3.20;2.90;;;21.80;99.90;;;;;;5050772;28;20182;-77
2021/09/11 15:08:18;;;;;;;3.37;2.60;;;21.70;99.90;;;;;;5050378;28;20173;-76
2021/09/11 15:10:43;;;;;;;3.30;3.03;;;21.70;99.90;;;;;;5050151;28;20189;-76
2021/09/11 15:13:09;;;;;;;4.67;3.10;;;21.60;99.90;;;;;;5050173;28;20174;-75
2021/09/11 15:15:34;;;;;;;3.20;3.00;;;21.60;99.90;;;;;;5050499;28;20566;-74
2021/09/11 15:18:00;;;;;;;2.93;2.73;;;21.50;99.90;;;;;;5050345;28;20180;-76
2021/09/11 15:20:26;;;;;;;2.40;2.20;;;21.50;99.90;;;;;;5049931;28;20178;-76
2021/09/11 15:22:52;;;;;;;3.80;2.57;;;21.50;99.90;;;;;;5050359;28;20438;-76
2021/09/11 15:25:17;;;;;;;2.97;2.67;;;21.40;99.90;;;;;;5050313;28;20255;-76
2021/09/11 15:27:43;;;;;;;3.03;2.93;;;21.30;99.90;;;;;;5049838;28;20250;-77
2021/09/11 15:30:11;;;;;;;5.97;3.13;;;21.20;99.90;;;;;;5048139;28;20174;-74
2021/09/11 15:32:38;;;;;;;3.83;3.17;;;21.10;99.90;;;;;;5029843;28;20547;-77
2021/09/11 15:35:05;;;;;;;6.93;3.53;;;21.00;99.90;;;;;;5030474;28;20467;-77
2021/09/11 15:37:31;;;;;;;3.70;3.50;;;20.90;99.90;;;;;;5029453;28;20516;-77
2021/09/11 15:39:57;;;;;;;3.60;3.37;;;20.80;99.90;;;;;;5030164;28;20427;-77
2021/09/11 15:42:23;;;;;;;3.10;2.87;;;20.80;99.90;;;;;;5030478;28;20433;-77
2021/09/11 15:44:49;;;;;;;3.93;3.10;;;20.70;99.90;;;;;;5030529;28;20550;-77
2021/09/11 15:47:15;;;;;;;3.37;3.00;;;20.60;99.90;;;;;;5029771;28;20208;-77
2021/09/11 15:49:41;;;;;;;3.47;3.27;;;20.60;99.90;;;;;;5029872;28;20444;-77
2021/09/11 15:52:06;;;;;;;2.97;2.77;;;20.60;99.90;;;;;;5030233;28;20953;-77
2021/09/11 15:54:32;;;;;;;6.23;3.00;;;20.60;99.90;;;;;;5030180;28;20201;-77
2021/09/11 15:56:58;;;;;;;4.20;3.40;;;20.50;99.90;;;;;;5030229;28;20248;-76
2021/09/11 15:59:24;;;;;;;4.57;3.53;;;20.50;99.90;;;;;;5030270;28;20181;-77
2021/09/11 16:01:50;;;;;;;3.30;3.10;;;20.40;99.90;;;;;;5029550;28;20444;-77
2021/09/11 16:04:15;;;;;;;3.13;2.93;;;20.30;99.90;;;;;;5033279;28;20340;-76
2021/09/11 16:06:41;;;;;;;4.50;3.57;;;20.30;99.90;;;;;;5033595;28;20178;-78
2021/09/11 16:09:07;;;;;;;4.10;3.00;;;20.30;99.90;;;;;;5033808;28;20261;-78
2021/09/11 16:11:33;;;;;;;3.60;3.30;;;20.20;99.90;;;;;;5033321;28;20523;-78
2021/09/11 16:13:59;;;;;;;3.77;3.43;;;20.20;99.90;;;;;;5034176;28;20186;-78
2021/09/11 16:16:24;;;;;;;2.83;2.63;;;20.10;99.90;;;;;;5016317;28;20606;-79
2021/09/11 16:18:50;;;;;;;3.00;2.80;;;20.10;99.90;;;;;;5034045;28;20178;-78
2021/09/11 16:21:15;;;;;;;3.20;2.60;;;20.00;99.90;;;;;;5033304;28;20209;-76
2021/09/11 16:23:41;;;;;;;3.43;3.00;;;20.00;99.90;;;;;;5033054;28;20678;-78
2021/09/11 16:26:07;;;;;;;2.53;2.30;;;19.90;99.90;;;;;;5016155;28;20181;-78
2021/09/11 16:28:32;;;;;;;2.80;2.40;;;19.90;99.90;;;;;;5033500;28;20186;-78
2021/09/11 16:30:58;;;;;;;2.40;2.20;;;19.80;99.90;;;;;;5041569;28;20201;-78
2021/09/11 16:33:24;;;;;;;3.50;2.67;;;19.70;99.90;;;;;;5052943;28;20181;-78
2021/09/11 16:35:49;;;;;;;4.37;2.93;;;19.70;99.90;;;;;;5053767;28;20621;-78
2021/09/11 16:38:15;;;;;;;5.27;3.03;;;19.70;99.90;;;;;;5053162;28;20173;-76
2021/09/11 16:40:40;;;;;;;4.30;3.30;;;19.70;99.90;;;;;;5035620;28;20206;-78
2021/09/11 16:43:06;;;;;;;3.30;3.10;;;19.70;99.90;;;;;;5052734;28;20174;-78
2021/09/11 16:45:32;;;;;;;3.17;2.70;;;19.70;99.90;;;;;;5053127;28;20209;-77
2021/09/11 16:47:58;;;;;;;3.43;3.07;;;19.80;99.90;;;;;;5053188;28;20173;-77
2021/09/11 16:50:24;;;;;;;5.43;3.03;;;19.70;99.90;;;;;;5052835;28;20256;-78
2021/09/11 16:52:50;;;;;;;3.90;2.83;;;19.70;99.90;;;;;;5053190;28;20519;-78
2021/09/11 16:55:15;;;;;;;5.10;2.97;;;19.70;99.90;;;;;;5053000;28;20992;-76
2021/09/11 16:57:41;;;;;;;2.90;2.60;;;19.70;99.90;;;;;;5052947;28;20542;-78
2021/09/11 17:00:09;;;;;;;2.93;2.70;;;19.80;99.90;;;;;;5052712;28;20619;-78
2021/09/11 17:02:34;;;;;;;2.83;2.63;;;19.70;99.90;;;;;;5052400;28;20197;-76
2021/09/11 17:05:03;;;;;;;2.90;2.70;;;19.70;99.90;;;;;;5052943;28;20463;-78
2021/09/11 17:07:29;;;;;;;2.77;2.60;;;19.60;99.90;;;;;;5034884;28;21080;-78
2021/09/11 17:09:55;;;;;;;3.13;2.50;;;19.60;99.90;;;;;;5051970;28;20412;-75
2021/09/11 17:12:20;;;;;;;4.03;2.13;;;19.50;99.90;;;;;;5052754;28;20450;-78
2021/09/11 17:14:46;;;;;;;3.13;2.80;;;19.40;99.90;;;;;;5053254;28;20541;-78
2021/09/11 17:17:11;;;;;;;2.70;2.50;;;19.40;99.90;;;;;;5052679;28;20559;-77
2021/09/11 17:19:37;;;;;;;2.00;1.90;;;19.40;99.90;;;;;;5052074;28;20611;-78